Terminal Aerodrome Forecast
Issued by NWS

Home | Current Version | Previous Version | Text Only | Print | Product List | Glossary On
Versions: 1 2 3 4 5 6 7 8 9 10 11 12
000
FTUS43 KGRB 031129
TAFMTW
TAF
KMTW 031129Z 0312/0412 15005KT P6SM SCT250
     FM031500 16011KT P6SM FEW070 BKN200
     FM032200 15009KT P6SM SCT060 BKN120
     FM040400 16005KT P6SM SCT060 BKN090
     FM041000 17005KT P6SM VCSH BKN060=

USA.gov is the U.S. government's official web portal to all federal, state and local government web resources and services.